createdAt,value
2022-11-19T00:01:26.426Z,10.20
2022-11-19T00:03:54.309Z,10.20
2022-11-19T00:06:23.793Z,10.20
2022-11-19T00:08:51.348Z,10.20
2022-11-19T00:11:41.413Z,10.50
2022-11-19T00:14:10.416Z,10.10
2022-11-19T00:16:37.679Z,10.10
2022-11-19T00:19:05.396Z,10.20
2022-11-19T00:21:32.833Z,10.10
2022-11-19T00:24:00.181Z,10.10
2022-11-19T00:26:27.730Z,10.10
2022-11-19T00:28:55.969Z,10.10
2022-11-19T00:31:23.989Z,10.10
2022-11-19T00:33:51.274Z,10.10
2022-11-19T00:36:18.541Z,10.20
2022-11-19T00:38:45.927Z,10.20
2022-11-19T00:41:13.203Z,10.10
2022-11-19T00:43:52.711Z,10.10
2022-11-19T00:46:29.639Z,10.20
2022-11-19T00:48:59.161Z,10.20
2022-11-19T00:51:29.231Z,10.10
2022-11-19T00:53:57.436Z,10.10
2022-11-19T00:56:27.568Z,10.10
2022-11-19T00:58:55.545Z,10.10
2022-11-19T01:01:25.002Z,10.10
2022-11-19T01:03:52.914Z,10.10
2022-11-19T01:06:22.317Z,10.10
2022-11-19T01:08:51.437Z,10.10
2022-11-19T01:11:21.338Z,10.10
2022-11-19T01:13:49.717Z,10.10
2022-11-19T01:16:20.046Z,10.10
2022-11-19T01:18:49.168Z,10.00
2022-11-19T01:21:18.476Z,10.00
2022-11-19T01:23:46.199Z,10.00
2022-11-19T01:26:14.476Z,10.10
2022-11-19T01:28:42.526Z,10.00
2022-11-19T01:31:13.327Z,10.00
2022-11-19T01:33:40.819Z,10.00
2022-11-19T01:36:15.225Z,10.00
2022-11-19T01:38:42.700Z,10.00
2022-11-19T01:41:10.882Z,10.00
2022-11-19T01:43:50.638Z,10.00
2022-11-19T01:46:23.654Z,9.90
2022-11-19T01:49:10.494Z,9.90
2022-11-19T01:51:43.705Z,9.90
2022-11-19T01:54:31.187Z,10.00
2022-11-19T01:57:03.414Z,9.90
2022-11-19T01:59:32.121Z,9.90
2022-11-19T02:02:00.200Z,9.90
2022-11-19T02:04:28.802Z,10.00
2022-11-19T02:06:57.075Z,9.90
2022-11-19T02:09:26.774Z,9.90
2022-11-19T02:11:59.889Z,9.90
2022-11-19T02:14:51.897Z,9.90
2022-11-19T02:17:57.563Z,9.90
2022-11-19T02:20:24.776Z,9.90
2022-11-19T02:22:51.967Z,9.90
2022-11-19T02:25:31.186Z,9.90
2022-11-19T02:28:10.415Z,9.90
2022-11-19T02:30:42.405Z,9.90
2022-11-19T02:33:24.092Z,9.90
2022-11-19T02:36:23.574Z,9.80
2022-11-19T02:39:03.820Z,9.80
2022-11-19T02:41:37.830Z,9.80
2022-11-19T02:44:35.610Z,9.80
2022-11-19T02:47:06.773Z,9.80
2022-11-19T02:49:39.564Z,9.80
2022-11-19T02:52:15.598Z,9.80
2022-11-19T02:54:43.630Z,9.70
2022-11-19T02:57:12.943Z,9.70
2022-11-19T03:00:15.166Z,9.70
2022-11-19T03:03:06.084Z,9.70
2022-11-19T03:05:37.829Z,9.70
2022-11-19T03:08:05.479Z,9.40
2022-11-19T03:10:50.277Z,9.70
2022-11-19T03:13:52.624Z,9.70
2022-11-19T03:16:42.341Z,9.70
2022-11-19T03:19:27.644Z,9.70
2022-11-19T03:22:09.903Z,9.70
2022-11-19T03:24:45.397Z,9.80
2022-11-19T03:27:18.606Z,9.70
2022-11-19T03:29:48.910Z,9.70
2022-11-19T03:32:22.452Z,9.60
2022-11-19T03:34:57.850Z,9.70
2022-11-19T03:37:29.215Z,9.70
2022-11-19T03:40:00.031Z,9.70
2022-11-19T03:42:27.825Z,9.70
2022-11-19T03:45:01.701Z,9.70
2022-11-19T03:47:36.704Z,9.70
2022-11-19T03:50:25.284Z,9.80
2022-11-19T03:52:52.675Z,9.70
2022-11-19T03:55:24.878Z,9.80
2022-11-19T03:57:52.388Z,9.70
2022-11-19T04:00:19.663Z,9.80
2022-11-19T04:02:46.943Z,9.70
2022-11-19T04:05:14.622Z,9.70
2022-11-19T04:07:41.902Z,9.80
2022-11-19T04:10:09.607Z,9.80
2022-11-19T04:12:36.948Z,9.80
2022-11-19T04:15:04.680Z,9.70
2022-11-19T04:17:31.920Z,9.80
2022-11-19T04:19:59.205Z,9.80
2022-11-19T04:22:26.458Z,9.70
2022-11-19T04:24:57.854Z,9.80
2022-11-19T04:27:29.838Z,10.40
2022-11-19T04:29:57.214Z,10.70
2022-11-19T04:32:24.519Z,9.80
2022-11-19T04:34:51.756Z,9.80
2022-11-19T04:37:19.092Z,9.80
2022-11-19T04:39:46.340Z,9.80
2022-11-19T04:42:13.635Z,9.80
2022-11-19T04:44:41.419Z,9.80
2022-11-19T04:47:08.665Z,9.80
2022-11-19T04:49:35.942Z,9.80
2022-11-19T04:52:03.443Z,9.90
2022-11-19T04:54:30.716Z,9.80
2022-11-19T04:56:57.975Z,9.70
2022-11-19T04:59:25.276Z,9.80
2022-11-19T05:01:52.826Z,9.80
2022-11-19T05:04:20.191Z,9.70
2022-11-19T05:06:47.580Z,9.70
2022-11-19T05:09:14.851Z,9.70
2022-11-19T05:11:42.149Z,9.80
2022-11-19T05:14:09.494Z,9.80
2022-11-19T05:16:36.741Z,9.80
2022-11-19T05:19:03.989Z,9.80
2022-11-19T05:21:31.339Z,9.80
2022-11-19T05:23:58.611Z,9.90
2022-11-19T05:26:25.928Z,9.90
2022-11-19T05:28:53.148Z,9.90
2022-11-19T05:31:20.518Z,9.90
2022-11-19T05:33:47.827Z,9.90
2022-11-19T05:36:15.108Z,9.80
2022-11-19T05:38:42.569Z,9.80
2022-11-19T05:41:09.877Z,9.90
2022-11-19T05:43:37.192Z,9.80
2022-11-19T05:46:04.527Z,9.80
2022-11-19T05:48:31.822Z,9.80
2022-11-19T05:50:59.092Z,9.90
2022-11-19T05:53:27.063Z,9.90
2022-11-19T05:55:54.337Z,9.80
2022-11-19T05:58:21.599Z,9.90
2022-11-19T06:00:48.906Z,10.00
2022-11-19T06:03:16.155Z,9.80
2022-11-19T06:05:43.422Z,9.10
2022-11-19T06:08:10.731Z,9.80
2022-11-19T06:10:38.202Z,9.80
2022-11-19T06:13:05.464Z,9.90
2022-11-19T06:15:32.767Z,10.10
2022-11-19T06:18:00.147Z,9.90
2022-11-19T06:20:27.441Z,9.80
2022-11-19T06:22:54.712Z,9.80
2022-11-19T06:25:21.984Z,9.90
2022-11-19T06:27:49.363Z,9.80
2022-11-19T06:30:17.170Z,9.80
2022-11-19T06:32:44.451Z,9.70
2022-11-19T06:35:14.103Z,9.70
2022-11-19T06:37:41.653Z,9.70
2022-11-19T06:40:09.519Z,9.70
2022-11-19T06:42:36.835Z,9.70
2022-11-19T06:45:11.320Z,9.70
2022-11-19T06:47:39.808Z,9.70
2022-11-19T06:50:09.081Z,9.70
2022-11-19T06:52:36.866Z,9.70
2022-11-19T06:55:04.706Z,9.80
2022-11-19T06:57:32.010Z,9.70
2022-11-19T06:59:59.268Z,9.70
2022-11-19T07:02:26.844Z,9.70
2022-11-19T07:04:54.150Z,9.70
2022-11-19T07:07:21.646Z,9.70
2022-11-19T07:09:49.091Z,9.70
2022-11-19T07:12:16.350Z,9.80
2022-11-19T07:14:43.617Z,9.70
2022-11-19T07:17:10.971Z,9.70
2022-11-19T07:19:38.258Z,9.80
2022-11-19T07:22:05.539Z,9.20
2022-11-19T07:24:32.880Z,9.70
2022-11-19T07:27:00.140Z,9.70
2022-11-19T07:29:27.538Z,9.80
2022-11-19T07:31:54.855Z,9.80
2022-11-19T07:34:22.131Z,9.70
2022-11-19T07:36:50.186Z,9.70
2022-11-19T07:39:18.415Z,9.70
2022-11-19T07:42:04.697Z,9.70
2022-11-19T07:44:32.009Z,9.70
2022-11-19T07:46:59.643Z,9.90
2022-11-19T07:49:27.015Z,9.70
2022-11-19T07:51:55.263Z,9.60
2022-11-19T07:54:22.502Z,9.70
2022-11-19T07:56:49.904Z,9.70
2022-11-19T07:59:17.549Z,9.70
2022-11-19T08:01:45.255Z,9.70
2022-11-19T08:04:12.778Z,9.80
2022-11-19T08:06:40.136Z,9.70
2022-11-19T08:09:07.444Z,9.70
2022-11-19T08:11:34.768Z,9.70
2022-11-19T08:14:02.319Z,9.70
2022-11-19T08:16:48.101Z,9.70
2022-11-19T08:19:16.960Z,9.70
2022-11-19T08:21:47.065Z,9.80
2022-11-19T08:24:16.568Z,9.70
2022-11-19T08:26:44.519Z,10.00
2022-11-19T08:29:16.547Z,9.80
2022-11-19T08:31:45.987Z,9.80
2022-11-19T08:34:13.783Z,9.80
2022-11-19T08:36:41.411Z,9.80
2022-11-19T08:39:08.698Z,9.80
2022-11-19T08:41:54.897Z,9.80
2022-11-19T08:44:22.866Z,9.70
2022-11-19T08:46:50.737Z,9.70
2022-11-19T08:49:18.269Z,9.80
2022-11-19T08:51:45.566Z,9.80
2022-11-19T08:54:13.337Z,9.80
2022-11-19T08:56:40.689Z,9.80
2022-11-19T08:59:08.396Z,9.80
2022-11-19T09:01:35.873Z,9.80
2022-11-19T09:04:03.353Z,9.90
2022-11-19T09:06:30.898Z,9.90
2022-11-19T09:08:58.466Z,10.00
2022-11-19T09:11:25.794Z,10.00
2022-11-19T09:13:53.150Z,9.90
2022-11-19T09:16:20.442Z,10.00
2022-11-19T09:18:47.745Z,10.00
2022-11-19T09:21:15.234Z,10.10
2022-11-19T09:23:42.755Z,10.10
2022-11-19T09:26:13.511Z,10.00
2022-11-19T09:28:41.366Z,10.10
2022-11-19T09:31:14.876Z,10.20
2022-11-19T09:33:46.216Z,10.20
2022-11-19T09:36:14.071Z,10.20
2022-11-19T09:38:41.704Z,10.20
2022-11-19T09:41:17.818Z,10.20
2022-11-19T09:44:11.075Z,10.30
2022-11-19T09:47:03.639Z,11.10
2022-11-19T09:49:47.313Z,10.20
2022-11-19T09:52:19.861Z,10.30
2022-11-19T09:54:50.674Z,10.30
2022-11-19T09:57:44.450Z,10.30
2022-11-19T10:00:21.056Z,10.30
2022-11-19T10:02:49.003Z,10.30
2022-11-19T10:05:28.291Z,10.30
2022-11-19T10:08:21.619Z,10.40
2022-11-19T10:11:16.520Z,10.30
2022-11-19T10:13:49.593Z,10.50
2022-11-19T10:16:34.648Z,10.40
2022-11-19T10:19:26.613Z,10.40
2022-11-19T10:22:01.419Z,10.40
2022-11-19T10:24:31.776Z,10.40
2022-11-19T10:27:08.297Z,10.30
2022-11-19T10:29:39.078Z,10.40
2022-11-19T10:32:23.734Z,10.40
2022-11-19T10:34:54.047Z,10.40
2022-11-19T10:37:23.639Z,10.40
2022-11-19T10:39:59.210Z,10.40
2022-11-19T10:42:36.756Z,10.50
2022-11-19T10:45:25.457Z,10.50
2022-11-19T10:48:21.200Z,10.50
2022-11-19T10:50:48.957Z,10.50
2022-11-19T10:53:24.942Z,10.50
2022-11-19T10:55:55.399Z,10.60
2022-11-19T10:58:58.520Z,10.70
2022-11-19T11:01:33.565Z,10.70
2022-11-19T11:04:21.163Z,10.70
2022-11-19T11:06:56.711Z,10.80
2022-11-19T11:09:30.870Z,10.80
2022-11-19T11:12:37.455Z,10.80
2022-11-19T11:15:24.763Z,10.80
2022-11-19T11:18:06.368Z,10.80
2022-11-19T11:20:33.891Z,10.80
2022-11-19T11:23:09.845Z,10.90
2022-11-19T11:25:39.381Z,10.80
2022-11-19T11:28:13.059Z,10.80
2022-11-19T11:31:10.731Z,10.90
2022-11-19T11:33:53.900Z,10.90
2022-11-19T11:36:27.485Z,10.90
2022-11-19T11:38:57.540Z,10.90
2022-11-19T11:42:04.712Z,10.90
2022-11-19T11:44:32.272Z,10.90
2022-11-19T11:47:20.664Z,10.90
2022-11-19T11:49:56.754Z,10.90
2022-11-19T11:52:42.437Z,11.00
2022-11-19T11:55:24.729Z,11.00
2022-11-19T11:57:55.731Z,11.00
2022-11-19T12:00:44.664Z,10.90
2022-11-19T12:03:14.461Z,10.90
2022-11-19T12:06:12.747Z,11.10
2022-11-19T12:09:02.636Z,11.00
2022-11-19T12:12:11.382Z,11.00
2022-11-19T12:14:50.921Z,11.00
2022-11-19T12:17:43.071Z,11.00
2022-11-19T12:20:29.358Z,11.00
2022-11-19T12:23:31.752Z,11.00
2022-11-19T12:26:13.241Z,11.00
2022-11-19T12:28:46.780Z,11.00
2022-11-19T12:31:30.222Z,10.30
2022-11-19T12:34:12.504Z,11.10
2022-11-19T12:36:52.289Z,11.10
2022-11-19T12:39:19.697Z,11.10
2022-11-19T12:42:02.743Z,11.10
2022-11-19T12:44:44.612Z,11.10
2022-11-19T12:47:42.076Z,11.10
2022-11-19T12:50:31.948Z,11.10
2022-11-19T12:53:14.679Z,11.00
2022-11-19T12:56:03.133Z,11.00
2022-11-19T12:59:22.207Z,11.00
2022-11-19T13:01:52.418Z,11.10
2022-11-19T13:04:43.382Z,11.00
2022-11-19T13:07:27.272Z,11.00
2022-11-19T13:10:03.596Z,11.00
2022-11-19T13:12:45.704Z,11.00
2022-11-19T13:15:21.989Z,11.00
2022-11-19T13:17:55.122Z,10.90
2022-11-19T13:20:37.591Z,11.00
2022-11-19T13:23:06.719Z,10.90
2022-11-19T13:25:42.349Z,11.00
2022-11-19T13:28:31.556Z,10.90
2022-11-19T13:31:03.778Z,10.80
2022-11-19T13:33:51.268Z,10.90
2022-11-19T13:36:34.775Z,10.90
2022-11-19T13:39:23.490Z,10.90
2022-11-19T13:42:12.619Z,10.90
2022-11-19T13:44:41.652Z,10.90
2022-11-19T13:47:20.345Z,11.00
2022-11-19T13:49:56.521Z,11.00
2022-11-19T13:52:35.611Z,11.00
2022-11-19T13:55:04.220Z,10.90
2022-11-19T13:57:39.289Z,10.90
2022-11-19T14:00:21.191Z,10.90
2022-11-19T14:02:54.397Z,10.90
2022-11-19T14:05:39.581Z,10.90
2022-11-19T14:08:22.944Z,10.90
2022-11-19T14:11:08.754Z,10.80
2022-11-19T14:13:51.394Z,10.80
2022-11-19T14:17:11.359Z,10.80
2022-11-19T14:20:13.257Z,10.90
2022-11-19T14:23:13.448Z,10.90
2022-11-19T14:26:03.939Z,10.50
2022-11-19T14:28:48.566Z,10.90
2022-11-19T14:31:17.374Z,11.00
2022-11-19T14:33:47.447Z,10.90
2022-11-19T14:36:43.848Z,10.90
2022-11-19T14:39:20.146Z,10.90
2022-11-19T14:42:07.678Z,10.90
2022-11-19T14:44:36.114Z,10.90
2022-11-19T14:47:22.349Z,10.90
2022-11-19T14:49:56.291Z,10.90
2022-11-19T14:52:36.577Z,10.90
2022-11-19T14:55:17.215Z,10.90
2022-11-19T14:57:53.069Z,10.90
2022-11-19T15:00:20.364Z,11.40
2022-11-19T15:02:51.213Z,10.90
2022-11-19T15:05:29.180Z,10.90
2022-11-19T15:08:18.096Z,10.90
2022-11-19T15:11:06.989Z,11.00
2022-11-19T15:13:35.811Z,11.00
2022-11-19T15:16:06.912Z,11.00
2022-11-19T15:18:40.286Z,11.00
2022-11-19T15:21:26.100Z,11.00
2022-11-19T15:23:59.558Z,10.90
2022-11-19T15:26:55.367Z,10.90
2022-11-19T15:29:44.857Z,10.90
2022-11-19T15:32:36.125Z,10.90
2022-11-19T15:35:38.299Z,10.80
2022-11-19T15:38:35.910Z,10.80
2022-11-19T15:41:06.167Z,10.80
2022-11-19T15:43:42.344Z,10.80
2022-11-19T15:46:20.121Z,10.70
2022-11-19T15:49:06.255Z,10.70
2022-11-19T15:51:49.855Z,10.70
2022-11-19T15:54:17.124Z,10.70
2022-11-19T15:56:50.266Z,9.90
2022-11-19T15:59:19.929Z,10.60
2022-11-19T16:02:01.096Z,11.50
2022-11-19T16:04:36.632Z,10.60
2022-11-19T16:07:07.816Z,10.60
2022-11-19T16:09:35.791Z,10.70
2022-11-19T16:12:22.143Z,11.10
2022-11-19T16:15:11.705Z,10.60
2022-11-19T16:17:47.625Z,10.60
2022-11-19T16:20:20.786Z,10.60
2022-11-19T16:23:04.132Z,10.60
2022-11-19T16:25:35.723Z,10.60
2022-11-19T16:28:15.249Z,10.60
2022-11-19T16:30:50.009Z,10.60
2022-11-19T16:33:22.202Z,10.60
2022-11-19T16:35:53.302Z,10.60
2022-11-19T16:38:27.984Z,10.60
2022-11-19T16:41:15.511Z,10.60
2022-11-19T16:43:44.908Z,10.60
2022-11-19T16:46:18.675Z,10.60
2022-11-19T16:48:48.663Z,10.70
2022-11-19T16:51:32.756Z,10.70
2022-11-19T16:54:00.527Z,11.50
2022-11-19T16:56:34.925Z,10.60
2022-11-19T16:59:04.552Z,10.60
2022-11-19T17:01:32.985Z,10.70
2022-11-19T17:04:05.112Z,10.70
2022-11-19T17:06:36.890Z,10.70
2022-11-19T17:09:05.960Z,10.70
2022-11-19T17:12:10.077Z,10.70
2022-11-19T17:14:40.387Z,10.70
2022-11-19T17:17:23.913Z,10.70
2022-11-19T17:19:51.171Z,10.70
2022-11-19T17:22:23.761Z,10.70
2022-11-19T17:24:51.511Z,10.70
2022-11-19T17:27:29.508Z,10.60
2022-11-19T17:30:19.022Z,10.70
2022-11-19T17:32:49.442Z,10.90
2022-11-19T17:35:46.153Z,10.70
2022-11-19T17:38:25.039Z,10.70
2022-11-19T17:40:56.511Z,10.80
2022-11-19T17:43:53.269Z,10.70
2022-11-19T17:46:21.708Z,10.80
2022-11-19T17:48:50.390Z,10.80
2022-11-19T17:51:22.709Z,10.70
2022-11-19T17:53:52.084Z,10.70
2022-11-19T17:56:27.014Z,10.70
2022-11-19T17:58:54.879Z,10.70
2022-11-19T18:01:23.086Z,10.60
2022-11-19T18:03:50.560Z,10.60
2022-11-19T18:06:18.810Z,10.60
2022-11-19T18:08:46.403Z,10.80
2022-11-19T18:11:25.004Z,10.70
2022-11-19T18:13:54.547Z,10.70
2022-11-19T18:16:24.738Z,10.70
2022-11-19T18:18:52.446Z,10.70
2022-11-19T18:21:21.843Z,10.70
2022-11-19T18:23:51.528Z,11.20
2022-11-19T18:26:24.482Z,10.70
2022-11-19T18:28:51.985Z,10.70
2022-11-19T18:31:26.256Z,10.70
2022-11-19T18:33:54.298Z,10.70
2022-11-19T18:36:22.503Z,10.70
2022-11-19T18:38:49.971Z,10.70
2022-11-19T18:41:20.817Z,10.70
2022-11-19T18:44:06.837Z,10.70
2022-11-19T18:46:34.311Z,10.60
2022-11-19T18:49:01.644Z,10.60
2022-11-19T18:51:31.366Z,10.60
2022-11-19T18:53:58.808Z,10.60
2022-11-19T18:56:26.294Z,10.60
2022-11-19T18:58:53.745Z,10.60
2022-11-19T19:01:24.042Z,10.60
2022-11-19T19:03:52.489Z,10.60
2022-11-19T19:06:20.880Z,10.50
2022-11-19T19:08:49.531Z,11.00
2022-11-19T19:11:35.955Z,10.50
2022-11-19T19:14:04.248Z,10.50
2022-11-19T19:16:32.349Z,10.50
2022-11-19T19:19:00.642Z,10.40
2022-11-19T19:21:28.945Z,10.50
2022-11-19T19:23:56.513Z,10.60
2022-11-19T19:26:24.494Z,10.40
2022-11-19T19:28:54.299Z,10.40
2022-11-19T19:31:22.788Z,10.30
2022-11-19T19:33:50.944Z,10.30
2022-11-19T19:36:19.747Z,10.30
2022-11-19T19:38:47.282Z,10.30
2022-11-19T19:41:23.415Z,10.40
2022-11-19T19:43:51.977Z,10.30
2022-11-19T19:46:21.555Z,10.30
2022-11-19T19:48:54.499Z,10.30
2022-11-19T19:51:24.840Z,10.30
2022-11-19T19:53:52.936Z,10.30
2022-11-19T19:56:21.319Z,10.30
2022-11-19T19:58:50.791Z,10.30
2022-11-19T20:01:24.607Z,10.30
2022-11-19T20:03:54.657Z,10.30
2022-11-19T20:06:23.742Z,10.30
2022-11-19T20:08:51.237Z,10.30
2022-11-19T20:11:21.504Z,10.30
2022-11-19T20:13:48.948Z,10.30
2022-11-19T20:16:18.487Z,10.20
2022-11-19T20:18:47.646Z,10.20
2022-11-19T20:21:17.351Z,10.20
2022-11-19T20:23:45.650Z,10.20
2022-11-19T20:26:16.008Z,10.10
2022-11-19T20:28:44.274Z,10.10
2022-11-19T20:31:17.486Z,10.00
2022-11-19T20:33:46.272Z,10.00
2022-11-19T20:36:15.531Z,10.00
2022-11-19T20:38:46.026Z,9.90
2022-11-19T20:41:33.850Z,9.90
2022-11-19T20:44:22.532Z,9.90
2022-11-19T20:46:58.954Z,9.80
2022-11-19T20:49:28.514Z,9.80
2022-11-19T20:51:56.740Z,9.80
2022-11-19T20:54:24.731Z,9.80
2022-11-19T20:56:53.636Z,9.50
2022-11-19T20:59:22.365Z,9.70
2022-11-19T21:01:50.666Z,9.70
2022-11-19T21:04:19.426Z,9.70
2022-11-19T21:06:46.948Z,9.70
2022-11-19T21:09:15.900Z,9.70
2022-11-19T21:11:44.085Z,9.70
2022-11-19T21:14:12.194Z,9.60
2022-11-19T21:16:39.624Z,9.60
2022-11-19T21:19:06.981Z,9.60
2022-11-19T21:21:35.380Z,9.50
2022-11-19T21:24:02.649Z,9.40
2022-11-19T21:26:30.117Z,9.40
2022-11-19T21:28:59.313Z,9.40
2022-11-19T21:31:46.393Z,9.40
2022-11-19T21:34:20.451Z,9.30
2022-11-19T21:36:48.631Z,9.30
2022-11-19T21:39:17.490Z,9.20
2022-11-19T21:41:44.999Z,9.30
2022-11-19T21:44:16.521Z,9.10
2022-11-19T21:46:45.550Z,9.10
2022-11-19T21:49:12.793Z,9.00
2022-11-19T21:51:39.999Z,9.10
2022-11-19T21:54:07.427Z,9.10
2022-11-19T21:56:38.485Z,9.00
2022-11-19T21:59:07.408Z,9.00
2022-11-19T22:01:35.009Z,8.90
2022-11-19T22:04:02.611Z,8.90
2022-11-19T22:06:30.997Z,8.80
2022-11-19T22:08:58.298Z,8.60
2022-11-19T22:11:32.004Z,8.50
2022-11-19T22:14:02.188Z,8.70
2022-11-19T22:16:31.156Z,8.70
2022-11-19T22:18:58.600Z,8.60
2022-11-19T22:21:27.167Z,8.70
2022-11-19T22:23:54.704Z,8.70
2022-11-19T22:26:22.050Z,8.70
2022-11-19T22:28:49.337Z,8.70
2022-11-19T22:31:16.684Z,8.70
2022-11-19T22:33:44.243Z,8.60
2022-11-19T22:36:11.957Z,8.70
2022-11-19T22:38:39.675Z,8.70
2022-11-19T22:41:09.896Z,8.60
2022-11-19T22:43:38.462Z,8.70
2022-11-19T22:46:06.873Z,8.70
2022-11-19T22:48:34.552Z,8.70
2022-11-19T22:51:23.247Z,8.30
2022-11-19T22:53:52.518Z,8.60
2022-11-19T22:56:26.807Z,8.60
2022-11-19T22:58:54.632Z,8.60
2022-11-19T23:01:35.310Z,8.80
2022-11-19T23:04:08.202Z,8.60
2022-11-19T23:06:37.649Z,8.50
2022-11-19T23:09:05.600Z,8.50
2022-11-19T23:11:51.539Z,8.40
2022-11-19T23:14:20.596Z,8.30
2022-11-19T23:16:48.192Z,8.40
2022-11-19T23:19:19.078Z,8.30
2022-11-19T23:21:47.702Z,8.30
2022-11-19T23:24:15.204Z,8.30
2022-11-19T23:26:42.677Z,8.30
2022-11-19T23:29:10.157Z,8.40
2022-11-19T23:31:39.318Z,8.30
2022-11-19T23:34:07.314Z,8.20
2022-11-19T23:36:37.824Z,8.30
2022-11-19T23:39:06.044Z,8.30
2022-11-19T23:41:34.078Z,11.70
2022-11-19T23:44:02.118Z,8.30
2022-11-19T23:46:31.402Z,8.30
2022-11-19T23:48:59.740Z,8.40
2022-11-19T23:51:29.792Z,8.40
2022-11-19T23:53:57.518Z,8.40
2022-11-19T23:56:26.244Z,8.40
2022-11-19T23:58:53.634Z,8.40
